createdAt,value
2019-03-04T00:01:30.915Z,8.77
2019-03-04T00:03:56.805Z,8.71
2019-03-04T00:06:22.791Z,8.75
2019-03-04T00:08:48.614Z,8.71
2019-03-04T00:11:14.600Z,8.63
2019-03-04T00:13:40.569Z,8.72
2019-03-04T00:16:06.538Z,8.69
2019-03-04T00:18:32.416Z,8.56
2019-03-04T00:20:58.473Z,8.52
2019-03-04T00:23:24.613Z,8.58
2019-03-04T00:25:51.838Z,8.42
2019-03-04T00:28:18.027Z,8.36
2019-03-04T00:30:43.863Z,8.45
2019-03-04T00:33:09.719Z,8.32
2019-03-04T00:35:35.855Z,8.41
2019-03-04T00:38:01.974Z,8.45
2019-03-04T00:40:27.950Z,8.42
2019-03-04T00:42:53.989Z,8.27
2019-03-04T00:45:19.913Z,8.30
2019-03-04T00:47:45.963Z,8.33
2019-03-04T00:50:16.587Z,8.34
2019-03-04T00:52:42.512Z,8.36
2019-03-04T00:55:09.674Z,8.45
2019-03-04T00:57:35.617Z,8.16
2019-03-04T01:00:03.518Z,8.07
2019-03-04T01:02:29.475Z,8.11
2019-03-04T01:04:55.534Z,8.17
2019-03-04T01:07:21.518Z,8.19
2019-03-04T01:09:47.352Z,8.14
2019-03-04T01:12:13.182Z,8.12
2019-03-04T01:14:39.028Z,7.99
2019-03-04T01:17:04.980Z,7.84
2019-03-04T01:19:30.902Z,7.73
2019-03-04T01:21:56.710Z,7.77
2019-03-04T01:24:22.552Z,7.75
2019-03-04T01:26:48.585Z,7.82
2019-03-04T01:29:14.409Z,7.83
2019-03-04T01:31:40.246Z,7.79
2019-03-04T01:34:06.222Z,7.72
2019-03-04T01:36:32.192Z,7.65
2019-03-04T01:38:58.065Z,7.55
2019-03-04T01:41:27.259Z,7.51
2019-03-04T01:43:53.210Z,7.73
2019-03-04T01:46:19.064Z,7.71
2019-03-04T01:48:45.036Z,7.67
2019-03-04T01:51:11.003Z,7.61
2019-03-04T01:53:36.882Z,7.50
2019-03-04T01:56:02.931Z,7.50
2019-03-04T01:58:28.840Z,7.50
2019-03-04T02:00:54.701Z,7.43
2019-03-04T02:03:20.645Z,7.40
2019-03-04T02:05:46.512Z,7.50
2019-03-04T02:08:12.645Z,7.45
2019-03-04T02:10:38.594Z,7.50
2019-03-04T02:13:04.566Z,7.46
2019-03-04T02:15:30.541Z,7.35
2019-03-04T02:17:56.503Z,7.33
2019-03-04T02:20:22.474Z,7.24
2019-03-04T02:22:48.324Z,7.23
2019-03-04T02:25:17.310Z,7.25
2019-03-04T02:27:48.666Z,7.32
2019-03-04T02:30:23.297Z,7.18
2019-03-04T02:32:49.323Z,7.24
2019-03-04T02:35:15.670Z,7.28
2019-03-04T02:37:41.670Z,7.25
2019-03-04T02:40:07.747Z,7.15
2019-03-04T02:42:33.585Z,7.11
2019-03-04T02:44:59.567Z,7.14
2019-03-04T02:47:25.407Z,7.06
2019-03-04T02:49:51.270Z,7.10
2019-03-04T02:52:17.157Z,7.05
2019-03-04T02:54:43.094Z,7.09
2019-03-04T02:57:08.978Z,7.07
2019-03-04T02:59:34.835Z,7.12
2019-03-04T03:02:00.758Z,7.19
2019-03-04T03:04:26.767Z,7.24
2019-03-04T03:06:52.719Z,7.14
2019-03-04T03:09:18.554Z,7.09
2019-03-04T03:11:44.666Z,7.11
2019-03-04T03:14:10.618Z,7.15
2019-03-04T03:16:36.549Z,7.11
2019-03-04T03:19:02.522Z,7.08
2019-03-04T03:21:28.477Z,7.17
2019-03-04T03:23:54.311Z,6.97
2019-03-04T03:26:20.273Z,6.98
2019-03-04T03:28:46.210Z,6.88
2019-03-04T03:31:12.082Z,6.99
2019-03-04T03:33:38.022Z,7.10
2019-03-04T03:36:04.016Z,7.10
2019-03-04T03:38:29.963Z,7.27
2019-03-04T03:40:55.789Z,7.26
2019-03-04T03:43:22.005Z,7.33
2019-03-04T03:45:48.017Z,7.07
2019-03-04T03:48:13.927Z,7.26
2019-03-04T03:50:39.839Z,7.16
2019-03-04T03:53:05.809Z,7.10
2019-03-04T03:55:31.750Z,7.09
2019-03-04T03:57:57.699Z,6.90
2019-03-04T04:00:24.450Z,7.06
2019-03-04T04:02:50.545Z,6.97
2019-03-04T04:05:16.516Z,6.90
2019-03-04T04:07:42.596Z,6.80
2019-03-04T04:10:14.557Z,6.77
2019-03-04T04:12:40.688Z,6.75
2019-03-04T04:15:09.098Z,6.79
2019-03-04T04:17:34.997Z,6.73
2019-03-04T04:20:00.954Z,6.68
2019-03-04T04:22:27.015Z,6.63
2019-03-04T04:24:53.107Z,6.73
2019-03-04T04:27:18.932Z,6.78
2019-03-04T04:29:44.869Z,6.62
2019-03-04T04:32:10.773Z,6.66
2019-03-04T04:34:36.737Z,6.78
2019-03-04T04:37:02.756Z,6.75
2019-03-04T04:39:28.648Z,6.71
2019-03-04T04:41:54.497Z,6.73
2019-03-04T04:44:20.518Z,6.61
2019-03-04T04:46:48.478Z,6.59
2019-03-04T04:49:14.353Z,6.56
2019-03-04T04:51:40.351Z,6.49
2019-03-04T04:54:06.204Z,6.40
2019-03-04T04:56:32.127Z,6.45
2019-03-04T04:58:58.002Z,6.40
2019-03-04T05:01:23.855Z,6.42
2019-03-04T05:03:49.692Z,6.41
2019-03-04T05:06:15.654Z,6.38
2019-03-04T05:08:41.618Z,6.47
2019-03-04T05:11:07.579Z,6.39
2019-03-04T05:13:33.515Z,6.42
2019-03-04T05:15:59.528Z,6.36
2019-03-04T05:18:25.516Z,6.30
2019-03-04T05:20:51.340Z,6.25
2019-03-04T05:23:17.199Z,6.23
2019-03-04T05:25:43.150Z,6.17
2019-03-04T05:28:08.982Z,6.14
2019-03-04T05:30:34.905Z,6.23
2019-03-04T05:33:00.978Z,6.16
2019-03-04T05:35:26.830Z,6.23
2019-03-04T05:37:52.765Z,6.33
2019-03-04T05:40:19.991Z,6.39
2019-03-04T05:42:46.050Z,6.34
2019-03-04T05:45:13.728Z,6.28
2019-03-04T05:47:39.919Z,6.34
2019-03-04T05:50:09.183Z,6.42
2019-03-04T05:52:35.040Z,6.46
2019-03-04T05:55:01.064Z,6.48
2019-03-04T05:57:26.895Z,6.54
2019-03-04T05:59:52.897Z,6.48
2019-03-04T06:02:18.800Z,6.51
2019-03-04T06:04:44.721Z,6.54
2019-03-04T06:07:12.491Z,6.56
2019-03-04T06:09:38.696Z,6.46
2019-03-04T06:12:04.740Z,6.49
2019-03-04T06:14:30.815Z,6.52
2019-03-04T06:16:56.652Z,6.66
2019-03-04T06:19:22.635Z,6.69
2019-03-04T06:21:48.716Z,6.77
2019-03-04T06:24:14.625Z,6.93
2019-03-04T06:26:40.457Z,6.97
2019-03-04T06:29:06.951Z,6.99
2019-03-04T06:31:32.870Z,7.04
2019-03-04T06:33:58.689Z,7.03
2019-03-04T06:36:24.692Z,7.18
2019-03-04T06:38:50.620Z,7.28
2019-03-04T06:41:16.550Z,7.39
2019-03-04T06:43:44.095Z,7.54
2019-03-04T06:46:10.132Z,7.61
2019-03-04T06:48:36.042Z,7.79
2019-03-04T06:51:05.711Z,7.78
2019-03-04T06:53:52.969Z,7.85
2019-03-04T06:56:22.655Z,7.88
2019-03-04T06:59:16.823Z,8.08
2019-03-04T07:01:49.333Z,8.18
2019-03-04T07:04:19.032Z,8.21
2019-03-04T07:06:45.003Z,8.41
2019-03-04T07:09:11.060Z,8.68
2019-03-04T07:11:37.154Z,8.72
2019-03-04T07:14:03.572Z,8.85
2019-03-04T07:16:29.505Z,8.79
2019-03-04T07:18:55.477Z,8.82
2019-03-04T07:21:21.549Z,8.77
2019-03-04T07:23:47.459Z,8.64
2019-03-04T07:26:13.399Z,8.74
2019-03-04T07:28:39.322Z,8.78
2019-03-04T07:31:05.402Z,8.87
2019-03-04T07:33:31.364Z,8.87
2019-03-04T07:35:57.321Z,8.97
2019-03-04T07:38:42.061Z,9.22
2019-03-04T07:41:07.893Z,9.44
2019-03-04T07:43:33.783Z,9.69
2019-03-04T07:45:59.838Z,9.99
2019-03-04T07:48:25.809Z,9.97
2019-03-04T07:50:51.858Z,10.45
2019-03-04T07:53:19.173Z,10.83
2019-03-04T07:55:45.367Z,11.07
2019-03-04T07:58:11.236Z,11.11
2019-03-04T08:00:37.047Z,10.97
2019-03-04T08:03:03.160Z,10.86
2019-03-04T08:05:29.098Z,10.83
2019-03-04T08:08:06.466Z,11.13
2019-03-04T08:10:41.945Z,11.03
2019-03-04T08:13:32.432Z,11.33
2019-03-04T08:15:58.511Z,11.33
2019-03-04T08:18:24.313Z,11.25
2019-03-04T08:20:50.295Z,11.06
2019-03-04T08:23:16.242Z,11.06
2019-03-04T08:25:42.087Z,10.88
2019-03-04T08:28:09.334Z,11.14
2019-03-04T08:30:35.434Z,11.44
2019-03-04T08:33:01.364Z,11.42
2019-03-04T08:35:27.474Z,11.72
2019-03-04T08:37:53.530Z,11.70
2019-03-04T08:40:19.572Z,11.63
2019-03-04T08:42:45.688Z,11.74
2019-03-04T08:45:17.122Z,11.96
2019-03-04T08:47:42.998Z,12.22
2019-03-04T08:50:11.296Z,12.63
2019-03-04T08:52:37.505Z,12.40
2019-03-04T08:55:05.986Z,12.27
2019-03-04T08:57:32.097Z,12.08
2019-03-04T08:59:58.035Z,11.91
2019-03-04T09:02:24.095Z,11.49
2019-03-04T09:04:49.985Z,11.29
2019-03-04T09:07:15.816Z,11.34
2019-03-04T09:09:41.770Z,11.20
2019-03-04T09:12:07.816Z,11.14
2019-03-04T09:14:33.788Z,11.34
2019-03-04T09:16:59.876Z,11.65
2019-03-04T09:19:25.724Z,11.87
2019-03-04T09:21:51.565Z,12.25
2019-03-04T09:24:17.657Z,12.18
2019-03-04T09:26:43.628Z,12.50
2019-03-04T09:29:09.569Z,13.10
2019-03-04T09:31:35.513Z,13.05
2019-03-04T09:34:01.412Z,13.50
2019-03-04T09:36:27.349Z,13.90
2019-03-04T09:38:53.178Z,14.29
2019-03-04T09:41:19.189Z,14.64
2019-03-04T09:43:45.098Z,14.70
2019-03-04T09:46:11.043Z,14.39
2019-03-04T09:48:37.089Z,13.69
2019-03-04T09:51:03.113Z,13.37
2019-03-04T09:53:38.877Z,13.55
2019-03-04T09:55:56.843Z,13.35
2019-03-04T09:58:22.716Z,14.00
2019-03-04T10:00:58.451Z,13.56
2019-03-04T10:03:40.351Z,13.25
2019-03-04T10:06:18.657Z,13.32
2019-03-04T10:09:05.016Z,12.99
2019-03-04T10:11:47.059Z,13.04
2019-03-04T10:14:25.860Z,12.76
2019-03-04T10:16:55.579Z,12.97
2019-03-04T10:19:37.257Z,12.99
2019-03-04T10:22:18.931Z,12.67
2019-03-04T10:24:54.334Z,12.33
2019-03-04T10:27:27.039Z,12.50
2019-03-04T10:30:05.703Z,12.39
2019-03-04T10:32:56.277Z,12.25
2019-03-04T10:35:51.827Z,12.36
2019-03-04T10:38:22.777Z,12.46
2019-03-04T10:41:20.247Z,12.43
2019-03-04T10:43:49.934Z,12.19
2019-03-04T10:46:36.349Z,12.22
2019-03-04T10:49:02.513Z,12.05
2019-03-04T10:51:31.987Z,12.18
2019-03-04T10:53:58.027Z,11.99
2019-03-04T10:56:24.070Z,11.89
2019-03-04T10:58:49.918Z,12.05
2019-03-04T11:01:15.760Z,12.09
2019-03-04T11:03:41.820Z,11.85
2019-03-04T11:06:07.915Z,11.78
2019-03-04T11:08:33.762Z,11.82
2019-03-04T11:10:59.944Z,11.63
2019-03-04T11:13:25.895Z,11.50
2019-03-04T11:15:51.728Z,11.61
2019-03-04T11:18:17.622Z,11.52
2019-03-04T11:20:43.569Z,11.40
2019-03-04T11:23:09.705Z,11.41
2019-03-04T11:25:36.042Z,11.46
2019-03-04T11:28:01.966Z,11.45
2019-03-04T11:30:29.837Z,11.54
2019-03-04T11:32:55.946Z,11.39
2019-03-04T11:35:21.785Z,11.53
2019-03-04T11:37:47.824Z,11.41
2019-03-04T11:40:22.084Z,11.62
2019-03-04T11:42:47.912Z,11.55
2019-03-04T11:45:14.753Z,11.55
2019-03-04T11:47:40.709Z,11.60
2019-03-04T11:50:10.144Z,11.50
2019-03-04T11:52:36.028Z,11.41
2019-03-04T11:55:02.119Z,11.39
2019-03-04T11:57:28.127Z,11.66
2019-03-04T11:59:53.970Z,11.80
2019-03-04T12:02:20.194Z,11.72
2019-03-04T12:04:46.057Z,12.04
2019-03-04T12:07:12.034Z,12.18
2019-03-04T12:09:37.944Z,11.94
2019-03-04T12:12:03.981Z,11.79
2019-03-04T12:14:30.030Z,11.65
2019-03-04T12:16:56.066Z,11.47
2019-03-04T12:19:22.004Z,11.12
2019-03-04T12:21:48.055Z,11.19
2019-03-04T12:24:14.041Z,11.19
2019-03-04T12:26:41.868Z,11.26
2019-03-04T12:29:07.726Z,11.52
2019-03-04T12:31:35.584Z,11.31
2019-03-04T12:34:01.526Z,11.34
2019-03-04T12:36:27.418Z,11.44
2019-03-04T12:38:53.276Z,11.50
2019-03-04T12:41:19.237Z,11.28
2019-03-04T12:43:45.208Z,11.33
2019-03-04T12:46:11.144Z,11.43
2019-03-04T12:48:37.133Z,11.69
2019-03-04T12:51:03.194Z,11.78
2019-03-04T12:53:37.008Z,11.55
2019-03-04T12:55:57.290Z,11.36
2019-03-04T12:58:23.341Z,11.38
2019-03-04T13:00:49.431Z,10.92
2019-03-04T13:03:20.021Z,10.85
2019-03-04T13:05:46.053Z,10.85
2019-03-04T13:08:12.015Z,10.99
2019-03-04T13:10:38.103Z,11.13
2019-03-04T13:13:04.165Z,11.27
2019-03-04T13:15:36.932Z,11.23
2019-03-04T13:18:11.099Z,11.23
2019-03-04T13:20:37.321Z,11.09
2019-03-04T13:23:04.053Z,11.19
2019-03-04T13:25:29.943Z,11.48
2019-03-04T13:27:55.903Z,11.60
2019-03-04T13:30:23.558Z,11.56
2019-03-04T13:32:49.987Z,11.60
2019-03-04T13:35:24.781Z,11.60
2019-03-04T13:37:49.923Z,11.46
2019-03-04T13:40:15.992Z,11.32
2019-03-04T13:42:41.935Z,11.12
2019-03-04T13:45:13.719Z,11.19
2019-03-04T13:47:39.873Z,11.29
2019-03-04T13:50:14.717Z,11.33
2019-03-04T13:52:40.785Z,11.29
2019-03-04T13:55:07.169Z,11.29
2019-03-04T13:57:36.735Z,11.35
2019-03-04T14:00:06.401Z,11.38
2019-03-04T14:02:32.376Z,11.32
2019-03-04T14:04:58.312Z,11.28
2019-03-04T14:07:24.229Z,11.15
2019-03-04T14:09:50.157Z,11.06
2019-03-04T14:12:16.267Z,11.24
2019-03-04T14:14:42.181Z,11.23
2019-03-04T14:17:08.239Z,11.19
2019-03-04T14:19:34.136Z,11.23
2019-03-04T14:22:00.395Z,11.31
2019-03-04T14:24:26.444Z,11.25
2019-03-04T14:26:52.458Z,11.27
2019-03-04T14:29:18.903Z,11.40
2019-03-04T14:31:44.979Z,11.42
2019-03-04T14:34:11.513Z,11.50
2019-03-04T14:36:37.495Z,11.45
2019-03-04T14:39:06.851Z,11.38
2019-03-04T14:41:32.995Z,11.19
2019-03-04T14:43:58.965Z,11.31
2019-03-04T14:46:25.028Z,11.32
2019-03-04T14:48:51.192Z,11.16
2019-03-04T14:51:18.945Z,11.19
2019-03-04T14:53:44.997Z,10.92
2019-03-04T14:56:11.226Z,10.78
2019-03-04T14:58:37.115Z,10.67
2019-03-04T15:01:03.446Z,10.50
2019-03-04T15:03:29.371Z,10.66
2019-03-04T15:05:55.309Z,10.63
2019-03-04T15:08:21.267Z,10.56
2019-03-04T15:10:47.375Z,10.55
2019-03-04T15:13:13.263Z,10.65
2019-03-04T15:15:39.201Z,10.84
2019-03-04T15:18:05.321Z,11.27
2019-03-04T15:20:33.501Z,14.84
2019-03-04T15:22:59.835Z,13.49
2019-03-04T15:25:31.289Z,13.98
2019-03-04T15:28:13.010Z,13.24
2019-03-04T15:30:40.726Z,12.86
2019-03-04T15:33:06.801Z,12.64
2019-03-04T15:35:32.680Z,12.24
2019-03-04T15:37:58.577Z,12.24
2019-03-04T15:40:26.683Z,11.87
2019-03-04T15:42:52.179Z,11.80
2019-03-04T15:45:18.280Z,11.53
2019-03-04T15:47:44.216Z,11.65
2019-03-04T15:50:10.945Z,11.38
2019-03-04T15:52:37.492Z,11.16
2019-03-04T15:55:06.362Z,10.90
2019-03-04T15:57:32.323Z,10.79
2019-03-04T15:59:58.377Z,10.29
2019-03-04T16:02:24.611Z,9.84
2019-03-04T16:04:50.624Z,9.91
2019-03-04T16:07:16.736Z,9.93
2019-03-04T16:09:42.821Z,9.99
2019-03-04T16:12:10.767Z,9.71
2019-03-04T16:14:36.642Z,9.56
2019-03-04T16:17:02.706Z,9.48
2019-03-04T16:19:28.628Z,9.15
2019-03-04T16:21:54.713Z,9.19
2019-03-04T16:24:20.784Z,9.32
2019-03-04T16:26:46.834Z,9.36
2019-03-04T16:29:12.807Z,9.44
2019-03-04T16:31:38.776Z,9.50
2019-03-04T16:34:04.854Z,8.76
2019-03-04T16:36:30.937Z,8.59
2019-03-04T16:38:56.759Z,8.81
2019-03-04T16:41:22.754Z,8.93
2019-03-04T16:43:48.939Z,8.96
2019-03-04T16:46:15.616Z,9.06
2019-03-04T16:48:41.698Z,8.97
2019-03-04T16:51:07.580Z,8.94
2019-03-04T16:53:33.901Z,9.06
2019-03-04T16:55:59.869Z,9.07
2019-03-04T16:58:26.130Z,9.16
2019-03-04T17:00:52.179Z,9.17
2019-03-04T17:03:18.228Z,9.20
2019-03-04T17:05:44.305Z,9.30
2019-03-04T17:08:10.455Z,9.28
2019-03-04T17:10:36.626Z,9.25
2019-03-04T17:13:02.898Z,9.28
2019-03-04T17:15:28.921Z,9.26
2019-03-04T17:17:54.778Z,9.23
2019-03-04T17:20:20.864Z,9.20
2019-03-04T17:22:47.288Z,9.24
2019-03-04T17:25:15.455Z,9.30
2019-03-04T17:27:41.992Z,9.38
2019-03-04T17:30:10.751Z,9.37
2019-03-04T17:32:37.039Z,9.42
2019-03-04T17:35:05.188Z,9.39
2019-03-04T17:37:31.265Z,9.33
2019-03-04T17:39:57.322Z,9.40
2019-03-04T17:42:23.163Z,9.35
2019-03-04T17:44:49.159Z,9.38
2019-03-04T17:47:15.129Z,9.46
2019-03-04T17:49:41.250Z,9.36
2019-03-04T17:52:07.370Z,9.33
2019-03-04T17:54:33.215Z,9.44
2019-03-04T17:56:59.116Z,9.44
2019-03-04T17:59:28.864Z,9.28
2019-03-04T18:01:55.821Z,9.01
2019-03-04T18:04:21.754Z,8.86
2019-03-04T18:06:48.297Z,8.71
2019-03-04T18:09:14.124Z,8.64
2019-03-04T18:11:40.129Z,8.60
2019-03-04T18:14:06.057Z,8.46
2019-03-04T18:16:32.616Z,8.45
2019-03-04T18:18:58.702Z,8.32
2019-03-04T18:21:24.834Z,8.36
2019-03-04T18:23:50.719Z,8.21
2019-03-04T18:26:20.309Z,8.23
2019-03-04T18:29:04.182Z,8.22
2019-03-04T18:31:48.870Z,8.20
2019-03-04T18:34:45.727Z,8.14
2019-03-04T18:37:30.740Z,8.02
2019-03-04T18:40:12.384Z,8.02
2019-03-04T18:42:42.024Z,7.95
2019-03-04T18:45:29.987Z,7.90
2019-03-04T18:48:14.873Z,7.88
2019-03-04T18:50:41.134Z,7.85
2019-03-04T18:53:07.411Z,7.82
2019-03-04T18:55:33.330Z,7.85
2019-03-04T18:57:59.288Z,7.73
2019-03-04T19:00:26.029Z,7.73
2019-03-04T19:02:51.968Z,7.66
2019-03-04T19:05:18.009Z,7.59
2019-03-04T19:07:44.164Z,7.57
2019-03-04T19:10:11.153Z,7.52
2019-03-04T19:12:37.012Z,7.57
2019-03-04T19:15:06.479Z,7.53
2019-03-04T19:17:33.791Z,7.68
2019-03-04T19:20:00.312Z,7.61
2019-03-04T19:22:26.348Z,7.48
2019-03-04T19:24:52.166Z,7.49
2019-03-04T19:27:18.058Z,7.47
2019-03-04T19:29:44.011Z,7.40
2019-03-04T19:32:09.847Z,7.38
2019-03-04T19:34:35.886Z,7.29
2019-03-04T19:37:01.978Z,7.18
2019-03-04T19:42:33.518Z,7.27
2019-03-04T19:44:59.442Z,7.28
2019-03-04T19:47:25.382Z,7.34
2019-03-04T19:49:51.299Z,7.13
2019-03-04T19:52:17.465Z,7.26
2019-03-04T19:54:43.444Z,7.19
2019-03-04T19:57:09.640Z,7.20
2019-03-04T19:59:35.741Z,7.10
2019-03-04T20:02:02.247Z,7.07
2019-03-04T20:04:28.413Z,7.04
2019-03-04T20:06:54.338Z,7.09
2019-03-04T20:09:21.918Z,7.06
2019-03-04T20:11:47.929Z,6.98
2019-03-04T20:14:13.877Z,6.90
2019-03-04T20:16:39.852Z,6.89
2019-03-04T20:19:05.942Z,6.88
2019-03-04T20:21:31.974Z,6.81
2019-03-04T20:23:57.831Z,6.71
2019-03-04T20:26:23.895Z,6.74
2019-03-04T20:28:49.886Z,6.77
2019-03-04T20:31:15.982Z,6.64
2019-03-04T20:33:41.959Z,6.71
2019-03-04T20:36:07.954Z,6.67
2019-03-04T20:38:37.388Z,6.69
2019-03-04T20:41:03.445Z,6.66
2019-03-04T20:43:29.515Z,6.57
2019-03-04T20:45:55.343Z,6.59
2019-03-04T20:48:21.328Z,6.57
2019-03-04T20:50:47.188Z,6.55
2019-03-04T20:53:13.243Z,6.54
2019-03-04T20:55:39.242Z,6.64
2019-03-04T20:58:05.168Z,6.55
2019-03-04T21:00:35.439Z,6.67
2019-03-04T21:03:07.351Z,6.68
2019-03-04T21:05:35.532Z,6.66
2019-03-04T21:08:02.016Z,6.62
2019-03-04T21:10:27.960Z,6.64
2019-03-04T21:12:56.011Z,6.68
2019-03-04T21:15:22.396Z,6.70
2019-03-04T21:17:48.448Z,6.75
2019-03-04T21:20:15.654Z,6.66
2019-03-04T21:22:44.285Z,6.68
2019-03-04T21:25:43.158Z,6.61
2019-03-04T21:28:28.147Z,6.61
2019-03-04T21:31:16.450Z,6.73
2019-03-04T21:34:06.048Z,6.77
2019-03-04T21:36:41.918Z,6.74
2019-03-04T21:39:10.171Z,6.66
2019-03-04T21:41:51.816Z,6.67
2019-03-04T21:44:44.572Z,6.49
2019-03-04T21:47:26.719Z,6.60
2019-03-04T21:49:52.784Z,6.45
2019-03-04T21:52:31.378Z,6.44
2019-03-04T21:54:57.319Z,6.35
2019-03-04T21:57:32.915Z,6.30
2019-03-04T21:59:59.148Z,6.31
2019-03-04T22:02:36.386Z,6.20
2019-03-04T22:05:11.701Z,6.10
2019-03-04T22:07:37.700Z,6.10
2019-03-04T22:10:07.260Z,6.07
2019-03-04T22:12:33.211Z,6.10
2019-03-04T22:14:59.436Z,6.10
2019-03-04T22:17:25.464Z,6.09
2019-03-04T22:19:51.364Z,6.05
2019-03-04T22:22:17.591Z,5.93
2019-03-04T22:24:43.525Z,5.89
2019-03-04T22:27:09.537Z,6.00
2019-03-04T22:29:35.436Z,5.92
2019-03-04T22:32:01.659Z,5.74
2019-03-04T22:34:27.529Z,5.92
2019-03-04T22:36:53.585Z,5.85
2019-03-04T22:39:19.534Z,5.82
2019-03-04T22:41:45.381Z,5.82
2019-03-04T22:44:11.342Z,5.95
2019-03-04T22:46:37.804Z,5.87
2019-03-04T22:49:03.783Z,5.80
2019-03-04T22:51:29.808Z,5.83
2019-03-04T22:53:56.037Z,5.90
2019-03-04T22:56:22.011Z,5.85
2019-03-04T22:58:48.239Z,5.85
2019-03-04T23:01:19.801Z,5.82
2019-03-04T23:03:45.872Z,5.98
2019-03-04T23:06:21.959Z,5.97
2019-03-04T23:08:47.896Z,5.84
2019-03-04T23:11:13.844Z,5.81
2019-03-04T23:13:52.502Z,5.84
2019-03-04T23:16:24.627Z,5.85
2019-03-04T23:18:50.611Z,5.82
2019-03-04T23:21:16.548Z,5.88
2019-03-04T23:23:42.464Z,5.84
2019-03-04T23:26:08.551Z,5.84
2019-03-04T23:28:34.487Z,5.92
2019-03-04T23:31:01.915Z,5.88
2019-03-04T23:33:27.869Z,5.85
2019-03-04T23:35:53.816Z,5.83
2019-03-04T23:38:19.802Z,5.88
2019-03-04T23:40:45.647Z,5.88
2019-03-04T23:43:11.710Z,5.71
2019-03-04T23:45:37.616Z,5.63
2019-03-04T23:48:03.666Z,5.57
2019-03-04T23:50:29.603Z,5.50
2019-03-04T23:52:55.639Z,5.47
2019-03-04T23:55:21.620Z,5.36
2019-03-04T23:57:47.549Z,5.36
